This is the latest recevied weather packets stored in our database for station/object HB9Y1. If no packets are shown the sender has not sent any weather packets the latest 10 day(s).
| Time | Temp. | Humidity | Pressure | Rain* | Wind** | Luminosity | Snow |
|---|---|---|---|---|---|---|---|
| 1778083790 | 6.11° C | 86% | 1005.8 hPa | 17.78 mm | - | 502 W/m² | - |
| 1778083162 | 7.22° C | 85% | 1005.6 hPa | 15.49 mm | - | 382 W/m² | - |
| 1778075962 | 1.11° C | 99% | 1005.6 hPa | 0 mm | - | 226 W/m² | - |
| 1778071770 | 0° C | 99% | 1005.2 hPa | 0 mm | - | 61 W/m² | - |
| 1778070570 | 0.56° C | 99% | 1004.8 hPa | 0 mm | - | 56 W/m² | - |
| 1778066362 | 0.56° C | 99% | 1004.6 hPa | 0 mm | - | 34 W/m² | - |
| 1778065770 | 0.56° C | 99% | 1004.4 hPa | 0 mm | - | 35 W/m² | - |
| 1778063962 | 0.56° C | 99% | 1004.4 hPa | 0 mm | - | 37 W/m² | - |
| 1778058570 | 1.67° C | 99% | 1004 hPa | 0.51 mm | - | 89 W/m² | - |
| 1778054970 | 1.11° C | 99% | 1003.6 hPa | 1.02 mm | - | 84 W/m² | - |
| 1778050170 | 3.89° C | 98% | 1003.3 hPa | 0.76 mm | - | 32 W/m² | - |
| 1778046569 | 4.44° C | 90% | 1003.6 hPa | 0 mm | - | 29 W/m² | - |
| 1778045369 | 4.44° C | 87% | 1004 hPa | 0 mm | - | 13 W/m² | - |
| 1778044781 | 4.44° C | 89% | 1004 hPa | 0 mm | - | 29 W/m² | - |
| 1778042361 | 4.44° C | 85% | 1004.4 hPa | 0 mm | - | 10 W/m² | - |
| 1778041770 | 3.89° C | 86% | 1004.4 hPa | 0 mm | - | 5 W/m² | - |
| 1778041161 | 3.89° C | 87% | 1004.3 hPa | 0 mm | - | 2 W/m² | - |
| 1778038161 | 3.89° C | 88% | 1004.9 hPa | 0 mm | - | 0 W/m² | - |
| 1778035769 | 3.33° C | 93% | 1005.6 hPa | 0 mm | - | 0 W/m² | - |
| 1778034569 | 3.33° C | 93% | 1005.8 hPa | 0 mm | - | 0 W/m² | - |
| 1778031561 | 3.89° C | 91% | 1006 hPa | 0 mm | - | 0 W/m² | - |
| 1778030969 | 3.89° C | 92% | 1006 hPa | 0 mm | - | 0 W/m² | - |
| 1778026169 | 3.89° C | 89% | 1007.2 hPa | 0 mm | - | 0 W/m² | - |
| 1778020761 | 3.89° C | 91% | 1007.6 hPa | 0 mm | - | 0 W/m² | - |
| 1778017769 | 4.44° C | 88% | 1008 hPa | 0 mm | - | 0 W/m² | - |
* Rain latest hour (hover to see other rain measurements)
** Current wind speed in m/s (hover to see current wind gust speed)